Terminal Aerodrome Forecast
Issued by NWS Cleveland, OH

Home | Current Version | Previous Version | Graphics & Text | Print | Product List | Glossary On
Versions: 1 2 3 4 5 6 7 8 9 10 11 12 13 14 15 16 17 18 19 20 21
000
FTUS41 KCLE 281700
TAFCAK
TAF
KCAK 281736Z 2818/2918 31008KT P6SM OVC025
     FM290000 32005KT P6SM BKN035
     FM290800 35003KT P6SM BKN030=

USA.gov is the U.S. government's official web portal to all federal, state and local government web resources and services.